sensor_id;sensor_type;location;lat;lon;timestamp;temperature;humidity
1592;DHT22;789;51.612;7.510;2024-01-30T00:02:02;9.90;1.00
1592;DHT22;789;51.612;7.510;2024-01-30T00:04:29;9.90;1.00
1592;DHT22;789;51.612;7.510;2024-01-30T00:06:57;9.90;1.00
1592;DHT22;789;51.612;7.510;2024-01-30T00:09:24;9.90;1.00
1592;DHT22;789;51.612;7.510;2024-01-30T00:11:51;9.80;1.00
1592;DHT22;789;51.612;7.510;2024-01-30T00:14:17;9.90;1.00
1592;DHT22;789;51.612;7.510;2024-01-30T00:16:44;9.80;1.00
1592;DHT22;789;51.612;7.510;2024-01-30T00:19:11;9.80;1.00
1592;DHT22;789;51.612;7.510;2024-01-30T00:21:38;9.80;1.00
1592;DHT22;789;51.612;7.510;2024-01-30T00:24:06;9.70;1.00
1592;DHT22;789;51.612;7.510;2024-01-30T00:26:33;9.70;1.00
1592;DHT22;789;51.612;7.510;2024-01-30T00:29:00;10.30;1.00
1592;DHT22;789;51.612;7.510;2024-01-30T00:31:27;9.70;1.00
1592;DHT22;789;51.612;7.510;2024-01-30T00:33:54;9.70;1.00
1592;DHT22;789;51.612;7.510;2024-01-30T00:36:21;9.60;1.00
1592;DHT22;789;51.612;7.510;2024-01-30T00:38:48;9.70;1.00
1592;DHT22;789;51.612;7.510;2024-01-30T00:41:17;10.20;1.00
1592;DHT22;789;51.612;7.510;2024-01-30T00:43:45;9.60;1.00
1592;DHT22;789;51.612;7.510;2024-01-30T00:46:12;9.60;1.00
1592;DHT22;789;51.612;7.510;2024-01-30T00:48:38;10.20;1.00
1592;DHT22;789;51.612;7.510;2024-01-30T00:51:09;9.60;1.00
1592;DHT22;789;51.612;7.510;2024-01-30T00:53:36;9.50;1.00
1592;DHT22;789;51.612;7.510;2024-01-30T00:56:03;9.50;1.00
1592;DHT22;789;51.612;7.510;2024-01-30T00:58:31;9.50;1.00
1592;DHT22;789;51.612;7.510;2024-01-30T01:00:58;9.50;1.00
1592;DHT22;789;51.612;7.510;2024-01-30T01:03:24;9.40;1.00
1592;DHT22;789;51.612;7.510;2024-01-30T01:05:51;9.30;1.00
1592;DHT22;789;51.612;7.510;2024-01-30T01:08:18;9.40;1.00
1592;DHT22;789;51.612;7.510;2024-01-30T01:10:45;9.40;1.00
1592;DHT22;789;51.612;7.510;2024-01-30T01:13:12;9.40;1.00
1592;DHT22;789;51.612;7.510;2024-01-30T01:15:40;9.40;1.00
1592;DHT22;789;51.612;7.510;2024-01-30T01:18:07;9.40;1.00
1592;DHT22;789;51.612;7.510;2024-01-30T01:20:34;9.40;1.00
1592;DHT22;789;51.612;7.510;2024-01-30T01:23:01;9.30;1.00
1592;DHT22;789;51.612;7.510;2024-01-30T01:25:28;9.30;1.00
1592;DHT22;789;51.612;7.510;2024-01-30T01:27:54;9.30;1.00
1592;DHT22;789;51.612;7.510;2024-01-30T01:30:22;9.30;1.00
1592;DHT22;789;51.612;7.510;2024-01-30T01:32:50;9.30;1.00
1592;DHT22;789;51.612;7.510;2024-01-30T01:35:21;9.90;1.00
1592;DHT22;789;51.612;7.510;2024-01-30T01:37:48;9.30;1.00
1592;DHT22;789;51.612;7.510;2024-01-30T01:40:20;9.30;1.00
1592;DHT22;789;51.612;7.510;2024-01-30T01:42:49;9.20;1.00
1592;DHT22;789;51.612;7.510;2024-01-30T01:45:15;9.20;1.00
1592;DHT22;789;51.612;7.510;2024-01-30T01:47:47;9.40;1.00
1592;DHT22;789;51.612;7.510;2024-01-30T01:50:16;9.80;1.00
1592;DHT22;789;51.612;7.510;2024-01-30T01:52:44;9.30;1.00
1592;DHT22;789;51.612;7.510;2024-01-30T01:55:11;9.60;1.00
1592;DHT22;789;51.612;7.510;2024-01-30T01:57:39;9.80;1.00
1592;DHT22;789;51.612;7.510;2024-01-30T02:00:07;9.30;1.00
1592;DHT22;789;51.612;7.510;2024-01-30T02:02:36;9.30;1.00
1592;DHT22;789;51.612;7.510;2024-01-30T02:05:04;9.30;1.00
1592;DHT22;789;51.612;7.510;2024-01-30T02:07:33;9.30;1.00
1592;DHT22;789;51.612;7.510;2024-01-30T02:09:59;9.30;1.00
1592;DHT22;789;51.612;7.510;2024-01-30T02:12:26;9.30;1.00
1592;DHT22;789;51.612;7.510;2024-01-30T02:14:53;9.40;1.00
1592;DHT22;789;51.612;7.510;2024-01-30T02:17:20;9.40;1.00
1592;DHT22;789;51.612;7.510;2024-01-30T02:19:48;9.40;1.00
1592;DHT22;789;51.612;7.510;2024-01-30T02:22:21;9.30;1.00
1592;DHT22;789;51.612;7.510;2024-01-30T02:24:48;9.30;1.00
1592;DHT22;789;51.612;7.510;2024-01-30T02:27:15;9.30;1.00
1592;DHT22;789;51.612;7.510;2024-01-30T02:29:42;10.00;1.00
1592;DHT22;789;51.612;7.510;2024-01-30T02:32:08;9.30;1.00
1592;DHT22;789;51.612;7.510;2024-01-30T02:34:35;9.30;1.00
1592;DHT22;789;51.612;7.510;2024-01-30T02:37:02;9.30;1.00
1592;DHT22;789;51.612;7.510;2024-01-30T02:39:29;9.30;1.00
1592;DHT22;789;51.612;7.510;2024-01-30T02:41:56;9.20;1.00
1592;DHT22;789;51.612;7.510;2024-01-30T02:44:23;9.20;1.00
1592;DHT22;789;51.612;7.510;2024-01-30T02:46:50;9.20;1.00
1592;DHT22;789;51.612;7.510;2024-01-30T02:49:19;9.20;1.00
1592;DHT22;789;51.612;7.510;2024-01-30T02:51:46;9.20;1.00
1592;DHT22;789;51.612;7.510;2024-01-30T02:54:16;9.20;1.00
1592;DHT22;789;51.612;7.510;2024-01-30T02:56:47;9.20;1.00
1592;DHT22;789;51.612;7.510;2024-01-30T02:59:14;9.20;1.00
1592;DHT22;789;51.612;7.510;2024-01-30T03:01:43;9.20;1.00
1592;DHT22;789;51.612;7.510;2024-01-30T03:04:10;9.20;1.00
1592;DHT22;789;51.612;7.510;2024-01-30T03:06:37;9.20;1.00
1592;DHT22;789;51.612;7.510;2024-01-30T03:09:04;9.20;1.00
1592;DHT22;789;51.612;7.510;2024-01-30T03:11:31;9.20;1.00
1592;DHT22;789;51.612;7.510;2024-01-30T03:14:00;9.20;1.00
1592;DHT22;789;51.612;7.510;2024-01-30T03:16:27;9.20;1.00
1592;DHT22;789;51.612;7.510;2024-01-30T03:18:54;9.30;1.00
1592;DHT22;789;51.612;7.510;2024-01-30T03:21:20;9.20;1.00
1592;DHT22;789;51.612;7.510;2024-01-30T03:23:47;9.20;1.00
1592;DHT22;789;51.612;7.510;2024-01-30T03:26:15;9.20;1.00
1592;DHT22;789;51.612;7.510;2024-01-30T03:28:42;9.20;1.00
1592;DHT22;789;51.612;7.510;2024-01-30T03:31:13;9.20;1.00
1592;DHT22;789;51.612;7.510;2024-01-30T03:33:40;9.20;1.00
1592;DHT22;789;51.612;7.510;2024-01-30T03:36:08;9.20;1.00
1592;DHT22;789;51.612;7.510;2024-01-30T03:38:35;9.20;1.00
1592;DHT22;789;51.612;7.510;2024-01-30T03:41:02;9.30;1.00
1592;DHT22;789;51.612;7.510;2024-01-30T03:43:29;9.30;1.00
1592;DHT22;789;51.612;7.510;2024-01-30T03:45:56;9.30;1.00
1592;DHT22;789;51.612;7.510;2024-01-30T03:48:24;9.30;1.00
1592;DHT22;789;51.612;7.510;2024-01-30T03:50:51;9.30;1.00
1592;DHT22;789;51.612;7.510;2024-01-30T03:53:18;9.30;1.00
1592;DHT22;789;51.612;7.510;2024-01-30T03:55:44;9.30;1.00
1592;DHT22;789;51.612;7.510;2024-01-30T03:58:14;9.30;1.00
1592;DHT22;789;51.612;7.510;2024-01-30T04:00:41;9.70;1.00
1592;DHT22;789;51.612;7.510;2024-01-30T04:03:07;9.30;1.00
1592;DHT22;789;51.612;7.510;2024-01-30T04:05:35;9.80;1.00
1592;DHT22;789;51.612;7.510;2024-01-30T04:08:02;9.30;1.00
1592;DHT22;789;51.612;7.510;2024-01-30T04:10:29;9.30;1.00
1592;DHT22;789;51.612;7.510;2024-01-30T04:12:56;9.50;1.00
1592;DHT22;789;51.612;7.510;2024-01-30T04:15:25;9.30;1.00
1592;DHT22;789;51.612;7.510;2024-01-30T04:17:53;9.30;1.00
1592;DHT22;789;51.612;7.510;2024-01-30T04:20:20;9.30;1.00
1592;DHT22;789;51.612;7.510;2024-01-30T04:22:48;9.30;1.00
1592;DHT22;789;51.612;7.510;2024-01-30T04:25:15;9.50;1.00
1592;DHT22;789;51.612;7.510;2024-01-30T04:27:43;9.20;1.00
1592;DHT22;789;51.612;7.510;2024-01-30T04:30:13;9.20;1.00
1592;DHT22;789;51.612;7.510;2024-01-30T04:32:43;9.20;1.00
1592;DHT22;789;51.612;7.510;2024-01-30T04:35:10;9.90;1.00
1592;DHT22;789;51.612;7.510;2024-01-30T04:37:37;9.30;1.00
1592;DHT22;789;51.612;7.510;2024-01-30T04:40:06;9.30;1.00
1592;DHT22;789;51.612;7.510;2024-01-30T04:42:34;9.30;1.00
1592;DHT22;789;51.612;7.510;2024-01-30T04:45:03;9.80;1.00
1592;DHT22;789;51.612;7.510;2024-01-30T04:47:30;9.20;1.00
1592;DHT22;789;51.612;7.510;2024-01-30T04:49:56;9.10;1.00
1592;DHT22;789;51.612;7.510;2024-01-30T04:52:23;9.10;1.00
1592;DHT22;789;51.612;7.510;2024-01-30T04:54:50;9.10;1.00
1592;DHT22;789;51.612;7.510;2024-01-30T04:57:18;9.20;1.00
1592;DHT22;789;51.612;7.510;2024-01-30T04:59:45;9.70;1.00
1592;DHT22;789;51.612;7.510;2024-01-30T05:02:11;9.80;1.00
1592;DHT22;789;51.612;7.510;2024-01-30T05:04:40;9.70;1.00
1592;DHT22;789;51.612;7.510;2024-01-30T05:07:07;9.10;1.00
1592;DHT22;789;51.612;7.510;2024-01-30T05:09:34;9.70;1.00
1592;DHT22;789;51.612;7.510;2024-01-30T05:12:01;9.10;1.00
1592;DHT22;789;51.612;7.510;2024-01-30T05:14:29;9.10;1.00
1592;DHT22;789;51.612;7.510;2024-01-30T05:16:55;9.00;1.00
1592;DHT22;789;51.612;7.510;2024-01-30T05:19:22;9.70;1.00
1592;DHT22;789;51.612;7.510;2024-01-30T05:21:49;9.20;1.00
1592;DHT22;789;51.612;7.510;2024-01-30T05:24:16;9.10;1.00
1592;DHT22;789;51.612;7.510;2024-01-30T05:26:44;9.10;1.00
1592;DHT22;789;51.612;7.510;2024-01-30T05:29:10;9.10;1.00
1592;DHT22;789;51.612;7.510;2024-01-30T05:31:39;9.10;1.00
1592;DHT22;789;51.612;7.510;2024-01-30T05:34:07;9.10;1.00
1592;DHT22;789;51.612;7.510;2024-01-30T05:36:34;9.20;1.00
1592;DHT22;789;51.612;7.510;2024-01-30T05:39:01;9.20;1.00
1592;DHT22;789;51.612;7.510;2024-01-30T05:41:28;9.20;1.00
1592;DHT22;789;51.612;7.510;2024-01-30T05:43:55;9.30;1.00
1592;DHT22;789;51.612;7.510;2024-01-30T05:46:22;9.20;1.00
1592;DHT22;789;51.612;7.510;2024-01-30T05:48:50;9.20;1.00
1592;DHT22;789;51.612;7.510;2024-01-30T05:51:16;9.20;1.00
1592;DHT22;789;51.612;7.510;2024-01-30T05:53:43;9.20;1.00
1592;DHT22;789;51.612;7.510;2024-01-30T05:56:10;9.80;1.00
1592;DHT22;789;51.612;7.510;2024-01-30T05:58:37;9.20;1.00
1592;DHT22;789;51.612;7.510;2024-01-30T06:01:06;9.80;1.00
1592;DHT22;789;51.612;7.510;2024-01-30T06:03:33;9.20;1.00
1592;DHT22;789;51.612;7.510;2024-01-30T06:06:02;9.30;1.00
1592;DHT22;789;51.612;7.510;2024-01-30T06:08:29;9.30;1.00
1592;DHT22;789;51.612;7.510;2024-01-30T06:10:55;9.30;1.00
1592;DHT22;789;51.612;7.510;2024-01-30T06:13:22;9.30;1.00
1592;DHT22;789;51.612;7.510;2024-01-30T06:15:49;9.30;1.00
1592;DHT22;789;51.612;7.510;2024-01-30T06:18:16;9.30;1.00
1592;DHT22;789;51.612;7.510;2024-01-30T06:20:43;9.30;1.00
1592;DHT22;789;51.612;7.510;2024-01-30T06:23:11;9.30;1.00
1592;DHT22;789;51.612;7.510;2024-01-30T06:25:38;9.20;1.00
1592;DHT22;789;51.612;7.510;2024-01-30T06:28:05;9.20;1.00
1592;DHT22;789;51.612;7.510;2024-01-30T06:30:32;9.20;1.00
1592;DHT22;789;51.612;7.510;2024-01-30T06:32:59;9.20;1.00
1592;DHT22;789;51.612;7.510;2024-01-30T06:35:26;9.90;1.00
1592;DHT22;789;51.612;7.510;2024-01-30T06:37:54;9.80;1.00
1592;DHT22;789;51.612;7.510;2024-01-30T06:40:22;9.30;1.00
1592;DHT22;789;51.612;7.510;2024-01-30T06:42:49;9.30;1.00
1592;DHT22;789;51.612;7.510;2024-01-30T06:45:17;9.20;1.00
1592;DHT22;789;51.612;7.510;2024-01-30T06:47:43;9.30;1.00
1592;DHT22;789;51.612;7.510;2024-01-30T06:50:10;9.20;1.00
1592;DHT22;789;51.612;7.510;2024-01-30T06:52:37;9.20;1.00
1592;DHT22;789;51.612;7.510;2024-01-30T06:55:07;9.20;1.00
1592;DHT22;789;51.612;7.510;2024-01-30T07:03:28;9.30;1.00
1592;DHT22;789;51.612;7.510;2024-01-30T07:05:54;9.20;1.00
1592;DHT22;789;51.612;7.510;2024-01-30T07:08:21;9.20;1.00
1592;DHT22;789;51.612;7.510;2024-01-30T07:10:48;9.30;1.00
1592;DHT22;789;51.612;7.510;2024-01-30T07:13:15;9.20;1.00
1592;DHT22;789;51.612;7.510;2024-01-30T07:15:43;9.80;1.00
1592;DHT22;789;51.612;7.510;2024-01-30T07:18:10;9.30;1.00
1592;DHT22;789;51.612;7.510;2024-01-30T07:20:40;9.50;1.00
1592;DHT22;789;51.612;7.510;2024-01-30T07:23:12;9.30;1.00
1592;DHT22;789;51.612;7.510;2024-01-30T07:25:39;9.50;1.00
1592;DHT22;789;51.612;7.510;2024-01-30T07:28:08;9.40;1.00
1592;DHT22;789;51.612;7.510;2024-01-30T07:30:35;9.40;1.00
1592;DHT22;789;51.612;7.510;2024-01-30T07:33:03;9.40;1.00
1592;DHT22;789;51.612;7.510;2024-01-30T07:35:30;9.40;1.00
1592;DHT22;789;51.612;7.510;2024-01-30T07:37:58;9.40;1.00
1592;DHT22;789;51.612;7.510;2024-01-30T07:40:25;9.70;1.00
1592;DHT22;789;51.612;7.510;2024-01-30T07:42:53;9.80;1.00
1592;DHT22;789;51.612;7.510;2024-01-30T07:45:20;9.60;1.00
1592;DHT22;789;51.612;7.510;2024-01-30T07:47:51;9.50;1.00
1592;DHT22;789;51.612;7.510;2024-01-30T07:50:18;9.90;1.00
1592;DHT22;789;51.612;7.510;2024-01-30T07:52:44;9.70;1.00
1592;DHT22;789;51.612;7.510;2024-01-30T07:55:14;10.00;1.00
1592;DHT22;789;51.612;7.510;2024-01-30T07:57:41;9.90;1.00
1592;DHT22;789;51.612;7.510;2024-01-30T08:00:09;10.60;1.00
1592;DHT22;789;51.612;7.510;2024-01-30T08:02:36;10.00;1.00
1592;DHT22;789;51.612;7.510;2024-01-30T08:05:04;10.10;1.00
1592;DHT22;789;51.612;7.510;2024-01-30T08:07:31;10.20;1.00
1592;DHT22;789;51.612;7.510;2024-01-30T08:09:58;10.10;1.00
1592;DHT22;789;51.612;7.510;2024-01-30T08:12:28;10.10;1.00
1592;DHT22;789;51.612;7.510;2024-01-30T08:14:55;10.20;1.00
1592;DHT22;789;51.612;7.510;2024-01-30T08:17:22;10.30;1.00
1592;DHT22;789;51.612;7.510;2024-01-30T08:19:48;10.30;1.00
1592;DHT22;789;51.612;7.510;2024-01-30T08:22:17;11.00;1.00
1592;DHT22;789;51.612;7.510;2024-01-30T08:24:43;10.60;1.00
1592;DHT22;789;51.612;7.510;2024-01-30T08:27:10;10.70;1.00
1592;DHT22;789;51.612;7.510;2024-01-30T08:29:39;10.70;1.00
1592;DHT22;789;51.612;7.510;2024-01-30T08:32:06;10.90;1.00
1592;DHT22;789;51.612;7.510;2024-01-30T08:34:33;11.10;1.00
1592;DHT22;789;51.612;7.510;2024-01-30T08:37:01;11.50;1.00
1592;DHT22;789;51.612;7.510;2024-01-30T08:39:27;12.10;1.00
1592;DHT22;789;51.612;7.510;2024-01-30T08:41:54;11.70;1.00
1592;DHT22;789;51.612;7.510;2024-01-30T08:44:21;12.30;1.00
1592;DHT22;789;51.612;7.510;2024-01-30T08:46:49;12.50;1.00
1592;DHT22;789;51.612;7.510;2024-01-30T08:49:17;12.30;1.00
1592;DHT22;789;51.612;7.510;2024-01-30T08:51:45;12.60;1.00
1592;DHT22;789;51.612;7.510;2024-01-30T08:54:11;12.50;1.00
1592;DHT22;789;51.612;7.510;2024-01-30T08:56:38;12.60;1.00
1592;DHT22;789;51.612;7.510;2024-01-30T08:59:05;12.60;1.00
1592;DHT22;789;51.612;7.510;2024-01-30T09:01:32;12.60;1.00
1592;DHT22;789;51.612;7.510;2024-01-30T09:04:02;12.60;1.00
1592;DHT22;789;51.612;7.510;2024-01-30T09:06:30;12.60;1.00
1592;DHT22;789;51.612;7.510;2024-01-30T09:08:57;12.60;1.00
1592;DHT22;789;51.612;7.510;2024-01-30T09:11:24;12.60;1.00
1592;DHT22;789;51.612;7.510;2024-01-30T09:13:50;12.60;1.00
1592;DHT22;789;51.612;7.510;2024-01-30T09:16:17;12.90;1.00
1592;DHT22;789;51.612;7.510;2024-01-30T09:18:44;12.90;1.00
1592;DHT22;789;51.612;7.510;2024-01-30T09:21:12;12.70;1.00
1592;DHT22;789;51.612;7.510;2024-01-30T09:23:40;12.70;1.00
1592;DHT22;789;51.612;7.510;2024-01-30T09:26:06;12.60;1.00
1592;DHT22;789;51.612;7.510;2024-01-30T09:28:34;12.60;1.00
1592;DHT22;789;51.612;7.510;2024-01-30T09:31:01;12.50;1.00
1592;DHT22;789;51.612;7.510;2024-01-30T09:33:28;12.50;1.00
1592;DHT22;789;51.612;7.510;2024-01-30T09:35:54;12.50;1.00
1592;DHT22;789;51.612;7.510;2024-01-30T09:38:24;12.50;1.00
1592;DHT22;789;51.612;7.510;2024-01-30T09:40:54;12.60;1.00
1592;DHT22;789;51.612;7.510;2024-01-30T09:43:23;12.50;1.00
1592;DHT22;789;51.612;7.510;2024-01-30T09:45:50;12.70;1.00
1592;DHT22;789;51.612;7.510;2024-01-30T09:48:19;13.30;1.00
1592;DHT22;789;51.612;7.510;2024-01-30T09:50:46;12.80;1.00
1592;DHT22;789;51.612;7.510;2024-01-30T09:53:13;12.80;1.00
1592;DHT22;789;51.612;7.510;2024-01-30T09:55:43;12.90;1.00
1592;DHT22;789;51.612;7.510;2024-01-30T09:58:11;12.90;1.00
1592;DHT22;789;51.612;7.510;2024-01-30T10:00:39;12.90;1.00
1592;DHT22;789;51.612;7.510;2024-01-30T10:03:06;12.80;1.00
1592;DHT22;789;51.612;7.510;2024-01-30T10:05:34;12.80;1.00
1592;DHT22;789;51.612;7.510;2024-01-30T10:08:06;12.80;1.00
1592;DHT22;789;51.612;7.510;2024-01-30T10:10:33;12.80;1.00
1592;DHT22;789;51.612;7.510;2024-01-30T10:13:01;12.90;1.00
1592;DHT22;789;51.612;7.510;2024-01-30T10:15:29;13.10;1.00
1592;DHT22;789;51.612;7.510;2024-01-30T10:17:55;12.50;1.00
1592;DHT22;789;51.612;7.510;2024-01-30T10:20:24;12.60;1.00
1592;DHT22;789;51.612;7.510;2024-01-30T10:22:51;12.40;1.00
1592;DHT22;789;51.612;7.510;2024-01-30T10:25:18;12.40;1.00
1592;DHT22;789;51.612;7.510;2024-01-30T10:27:52;12.50;1.00
1592;DHT22;789;51.612;7.510;2024-01-30T10:30:22;12.40;1.00
1592;DHT22;789;51.612;7.510;2024-01-30T10:32:50;12.60;1.00
1592;DHT22;789;51.612;7.510;2024-01-30T10:35:17;13.30;1.00
1592;DHT22;789;51.612;7.510;2024-01-30T10:37:52;12.90;1.00
1592;DHT22;789;51.612;7.510;2024-01-30T10:40:26;13.10;1.00
1592;DHT22;789;51.612;7.510;2024-01-30T10:42:55;13.90;1.00
1592;DHT22;789;51.612;7.510;2024-01-30T10:45:25;14.80;1.00
1592;DHT22;789;51.612;7.510;2024-01-30T10:47:54;15.70;1.00
1592;DHT22;789;51.612;7.510;2024-01-30T10:50:24;16.40;1.00
1592;DHT22;789;51.612;7.510;2024-01-30T10:52:52;17.00;1.00
1592;DHT22;789;51.612;7.510;2024-01-30T10:55:21;17.40;1.00
1592;DHT22;789;51.612;7.510;2024-01-30T10:57:48;17.40;1.00
1592;DHT22;789;51.612;7.510;2024-01-30T11:00:16;17.30;1.00
1592;DHT22;789;51.612;7.510;2024-01-30T11:02:49;17.40;1.00
1592;DHT22;789;51.612;7.510;2024-01-30T11:05:23;17.50;1.00
1592;DHT22;789;51.612;7.510;2024-01-30T11:07:50;17.60;1.00
1592;DHT22;789;51.612;7.510;2024-01-30T11:10:17;17.90;1.00
1592;DHT22;789;51.612;7.510;2024-01-30T11:12:46;18.40;1.00
1592;DHT22;789;51.612;7.510;2024-01-30T11:15:16;19.50;1.00
1592;DHT22;789;51.612;7.510;2024-01-30T11:17:45;20.30;1.00
1592;DHT22;789;51.612;7.510;2024-01-30T11:20:14;20.90;1.00
1592;DHT22;789;51.612;7.510;2024-01-30T11:22:42;21.10;1.00
1592;DHT22;789;51.612;7.510;2024-01-30T11:25:14;20.80;1.00
1592;DHT22;789;51.612;7.510;2024-01-30T11:27:41;21.00;1.00
1592;DHT22;789;51.612;7.510;2024-01-30T11:30:09;21.80;1.00
1592;DHT22;789;51.612;7.510;2024-01-30T11:32:36;22.60;1.00
1592;DHT22;789;51.612;7.510;2024-01-30T11:35:04;23.10;1.00
1592;DHT22;789;51.612;7.510;2024-01-30T11:37:37;23.00;1.00
1592;DHT22;789;51.612;7.510;2024-01-30T11:40:05;22.80;1.00
1592;DHT22;789;51.612;7.510;2024-01-30T11:42:34;22.50;1.00
1592;DHT22;789;51.612;7.510;2024-01-30T11:45:05;22.20;1.00
1592;DHT22;789;51.612;7.510;2024-01-30T11:47:35;21.80;1.00
1592;DHT22;789;51.612;7.510;2024-01-30T11:50:01;21.10;1.00
1592;DHT22;789;51.612;7.510;2024-01-30T11:52:33;20.80;1.00
1592;DHT22;789;51.612;7.510;2024-01-30T11:55:03;20.10;1.00
1592;DHT22;789;51.612;7.510;2024-01-30T11:57:30;19.30;1.00
1592;DHT22;789;51.612;7.510;2024-01-30T11:59:56;18.50;1.00
1592;DHT22;789;51.612;7.510;2024-01-30T12:02:23;17.90;1.00
1592;DHT22;789;51.612;7.510;2024-01-30T12:04:50;17.40;1.00
1592;DHT22;789;51.612;7.510;2024-01-30T12:07:17;16.90;1.00
1592;DHT22;789;51.612;7.510;2024-01-30T12:09:54;16.40;1.00
1592;DHT22;789;51.612;7.510;2024-01-30T12:12:22;16.00;1.00
1592;DHT22;789;51.612;7.510;2024-01-30T12:14:49;15.70;1.00
1592;DHT22;789;51.612;7.510;2024-01-30T12:17:24;15.40;1.00
1592;DHT22;789;51.612;7.510;2024-01-30T12:19:51;15.30;1.00
1592;DHT22;789;51.612;7.510;2024-01-30T12:22:20;15.10;1.00
1592;DHT22;789;51.612;7.510;2024-01-30T12:24:46;14.90;1.00
1592;DHT22;789;51.612;7.510;2024-01-30T12:27:16;15.30;1.00
1592;DHT22;789;51.612;7.510;2024-01-30T12:29:43;14.60;1.00
1592;DHT22;789;51.612;7.510;2024-01-30T12:32:15;14.80;1.00
1592;DHT22;789;51.612;7.510;2024-01-30T12:34:42;14.50;1.00
1592;DHT22;789;51.612;7.510;2024-01-30T12:37:09;14.50;1.00
1592;DHT22;789;51.612;7.510;2024-01-30T12:39:37;14.40;1.00
1592;DHT22;789;51.612;7.510;2024-01-30T12:42:04;14.40;1.00
1592;DHT22;789;51.612;7.510;2024-01-30T12:44:32;14.40;1.00
1592;DHT22;789;51.612;7.510;2024-01-30T12:47:02;14.70;1.00
1592;DHT22;789;51.612;7.510;2024-01-30T12:49:29;14.40;1.00
1592;DHT22;789;51.612;7.510;2024-01-30T12:51:57;14.90;1.00
1592;DHT22;789;51.612;7.510;2024-01-30T12:54:25;14.30;1.00
1592;DHT22;789;51.612;7.510;2024-01-30T12:56:51;14.30;1.00
1592;DHT22;789;51.612;7.510;2024-01-30T12:59:18;14.30;1.00
1592;DHT22;789;51.612;7.510;2024-01-30T13:01:46;14.20;1.00
1592;DHT22;789;51.612;7.510;2024-01-30T13:04:14;14.20;1.00
1592;DHT22;789;51.612;7.510;2024-01-30T13:06:42;14.20;1.00
1592;DHT22;789;51.612;7.510;2024-01-30T13:09:09;14.80;1.00
1592;DHT22;789;51.612;7.510;2024-01-30T13:11:35;14.20;1.00
1592;DHT22;789;51.612;7.510;2024-01-30T13:14:05;14.20;1.00
1592;DHT22;789;51.612;7.510;2024-01-30T13:16:32;14.10;1.00
1592;DHT22;789;51.612;7.510;2024-01-30T13:19:01;14.00;1.00
1592;DHT22;789;51.612;7.510;2024-01-30T13:21:28;14.50;1.00
1592;DHT22;789;51.612;7.510;2024-01-30T13:23:54;14.60;1.00
1592;DHT22;789;51.612;7.510;2024-01-30T13:26:22;14.00;1.00
1592;DHT22;789;51.612;7.510;2024-01-30T13:28:49;14.00;1.00
1592;DHT22;789;51.612;7.510;2024-01-30T13:31:17;14.00;1.00
1592;DHT22;789;51.612;7.510;2024-01-30T13:33:45;13.90;1.00
1592;DHT22;789;51.612;7.510;2024-01-30T13:36:13;14.20;1.00
1592;DHT22;789;51.612;7.510;2024-01-30T13:38:40;13.90;1.00
1592;DHT22;789;51.612;7.510;2024-01-30T13:41:07;13.90;1.00
1592;DHT22;789;51.612;7.510;2024-01-30T13:43:34;13.90;1.00
1592;DHT22;789;51.612;7.510;2024-01-30T13:46:08;13.80;1.00
1592;DHT22;789;51.612;7.510;2024-01-30T13:48:35;13.80;1.00
1592;DHT22;789;51.612;7.510;2024-01-30T13:51:02;13.80;1.00
1592;DHT22;789;51.612;7.510;2024-01-30T13:53:30;13.90;1.00
1592;DHT22;789;51.612;7.510;2024-01-30T13:55:56;13.80;1.00
1592;DHT22;789;51.612;7.510;2024-01-30T13:58:23;13.80;1.00
1592;DHT22;789;51.612;7.510;2024-01-30T14:00:50;14.20;1.00
1592;DHT22;789;51.612;7.510;2024-01-30T14:03:17;13.70;1.00
1592;DHT22;789;51.612;7.510;2024-01-30T14:05:45;13.70;1.00
1592;DHT22;789;51.612;7.510;2024-01-30T14:08:12;13.70;1.00
1592;DHT22;789;51.612;7.510;2024-01-30T14:10:40;13.60;1.00
1592;DHT22;789;51.612;7.510;2024-01-30T14:13:08;13.70;1.00
1592;DHT22;789;51.612;7.510;2024-01-30T14:15:37;14.00;1.00
1592;DHT22;789;51.612;7.510;2024-01-30T14:18:04;13.60;1.00
1592;DHT22;789;51.612;7.510;2024-01-30T14:20:32;13.60;1.00
1592;DHT22;789;51.612;7.510;2024-01-30T14:22:59;13.70;1.00
1592;DHT22;789;51.612;7.510;2024-01-30T14:25:29;13.50;1.00
1592;DHT22;789;51.612;7.510;2024-01-30T14:27:57;13.50;1.00
1592;DHT22;789;51.612;7.510;2024-01-30T14:30:24;13.40;1.00
1592;DHT22;789;51.612;7.510;2024-01-30T14:32:50;13.90;1.00
1592;DHT22;789;51.612;7.510;2024-01-30T14:35:17;13.30;1.00
1592;DHT22;789;51.612;7.510;2024-01-30T14:37:45;13.50;1.00
1592;DHT22;789;51.612;7.510;2024-01-30T14:40:12;13.20;1.00
1592;DHT22;789;51.612;7.510;2024-01-30T14:42:38;13.20;1.00
1592;DHT22;789;51.612;7.510;2024-01-30T14:45:07;13.30;1.00
1592;DHT22;789;51.612;7.510;2024-01-30T14:47:35;13.80;1.00
1592;DHT22;789;51.612;7.510;2024-01-30T14:50:02;13.40;1.00
1592;DHT22;789;51.612;7.510;2024-01-30T14:52:29;13.40;1.00
1592;DHT22;789;51.612;7.510;2024-01-30T14:54:57;13.40;1.00
1592;DHT22;789;51.612;7.510;2024-01-30T14:57:24;13.40;1.00
1592;DHT22;789;51.612;7.510;2024-01-30T14:59:51;13.30;1.00
1592;DHT22;789;51.612;7.510;2024-01-30T15:02:19;13.60;1.00
1592;DHT22;789;51.612;7.510;2024-01-30T15:04:46;13.40;1.00
1592;DHT22;789;51.612;7.510;2024-01-30T15:07:13;13.80;1.00
1592;DHT22;789;51.612;7.510;2024-01-30T15:09:40;13.30;1.00
1592;DHT22;789;51.612;7.510;2024-01-30T15:12:08;13.30;1.00
1592;DHT22;789;51.612;7.510;2024-01-30T15:14:35;13.30;1.00
1592;DHT22;789;51.612;7.510;2024-01-30T15:17:02;13.40;1.00
1592;DHT22;789;51.612;7.510;2024-01-30T15:19:30;13.30;1.00
1592;DHT22;789;51.612;7.510;2024-01-30T15:21:57;13.30;1.00
1592;DHT22;789;51.612;7.510;2024-01-30T15:24:24;13.30;1.00
1592;DHT22;789;51.612;7.510;2024-01-30T15:26:53;13.30;1.00
1592;DHT22;789;51.612;7.510;2024-01-30T15:29:26;13.30;1.00
1592;DHT22;789;51.612;7.510;2024-01-30T15:31:53;13.50;1.00
1592;DHT22;789;51.612;7.510;2024-01-30T15:34:20;13.20;1.00
1592;DHT22;789;51.612;7.510;2024-01-30T15:36:49;13.10;1.00
1592;DHT22;789;51.612;7.510;2024-01-30T15:39:17;13.30;1.00
1592;DHT22;789;51.612;7.510;2024-01-30T15:41:43;13.40;1.00
1592;DHT22;789;51.612;7.510;2024-01-30T15:44:10;12.90;1.00
1592;DHT22;789;51.612;7.510;2024-01-30T15:46:37;13.30;1.00
1592;DHT22;789;51.612;7.510;2024-01-30T15:49:04;13.40;1.00
1592;DHT22;789;51.612;7.510;2024-01-30T15:51:32;12.90;1.00
1592;DHT22;789;51.612;7.510;2024-01-30T15:54:02;13.30;1.00
1592;DHT22;789;51.612;7.510;2024-01-30T15:56:28;12.80;1.00
1592;DHT22;789;51.612;7.510;2024-01-30T15:58:55;13.20;1.00
1592;DHT22;789;51.612;7.510;2024-01-30T16:01:22;13.30;1.00
1592;DHT22;789;51.612;7.510;2024-01-30T16:03:49;12.80;1.00
1592;DHT22;789;51.612;7.510;2024-01-30T16:06:16;12.80;1.00
1592;DHT22;789;51.612;7.510;2024-01-30T16:08:43;13.20;1.00
1592;DHT22;789;51.612;7.510;2024-01-30T16:11:11;12.90;1.00
1592;DHT22;789;51.612;7.510;2024-01-30T16:13:39;12.80;1.00
1592;DHT22;789;51.612;7.510;2024-01-30T16:16:06;13.30;1.00
1592;DHT22;789;51.612;7.510;2024-01-30T16:18:33;12.70;1.00
1592;DHT22;789;51.612;7.510;2024-01-30T16:21:00;12.70;1.00
1592;DHT22;789;51.612;7.510;2024-01-30T16:23:27;12.70;1.00
1592;DHT22;789;51.612;7.510;2024-01-30T16:25:58;12.60;1.00
1592;DHT22;789;51.612;7.510;2024-01-30T16:28:32;12.70;1.00
1592;DHT22;789;51.612;7.510;2024-01-30T16:31:02;12.80;1.00
1592;DHT22;789;51.612;7.510;2024-01-30T16:33:29;12.80;1.00
1592;DHT22;789;51.612;7.510;2024-01-30T16:35:56;12.80;1.00
1592;DHT22;789;51.612;7.510;2024-01-30T16:38:23;13.10;1.00
1592;DHT22;789;51.612;7.510;2024-01-30T16:40:50;12.70;1.00
1592;DHT22;789;51.612;7.510;2024-01-30T16:43:17;12.60;1.00
1592;DHT22;789;51.612;7.510;2024-01-30T16:45:45;12.60;1.00
1592;DHT22;789;51.612;7.510;2024-01-30T16:48:12;12.50;1.00
1592;DHT22;789;51.612;7.510;2024-01-30T16:50:42;12.50;1.00